Time;durP1;ratioP1;P1;durP2;ratioP2;P2;SDS_P1;SDS_P2;PMS_P1;PMS_P2;Temp;Humidity;BMP_temperature;BMP_pressure;BME280_temperature;BME280_humidity;BME280_pressure;Samples;Min_cycle;Max_cycle;Signal;HPM_P1;HPM_P2
2022/03/13 00:01:21;;;;;;;14.70;9.52;;;;;;;;;;5055802;28;20075;-79
2022/03/13 00:03:47;;;;;;;16.35;9.90;;;;;;;;;;5058235;28;20038;-79
2022/03/13 00:06:14;;;;;;;18.40;10.50;;;;;;;;;;5061542;28;20115;-79
2022/03/13 00:08:41;;;;;;;16.65;11.30;;;;;;;;;;5056602;28;20528;-78
2022/03/13 00:11:08;;;;;;;17.15;10.90;;;;;;;;;;5056495;28;20033;-79
2022/03/13 00:13:54;;;;;;;16.38;11.32;;;;;;;;;;5058178;28;20158;-79
2022/03/13 00:16:21;;;;;;;17.80;11.55;;;;;;;;;;5058203;28;20031;-79
2022/03/13 00:18:47;;;;;;;20.42;11.05;;;;;;;;;;5060931;28;20017;-78
2022/03/13 00:21:14;;;;;;;19.38;11.85;;;;;;;;;;5058972;28;20037;-78
2022/03/13 00:23:41;;;;;;;19.15;11.48;;;;;;;;;;5051913;28;20135;-78
2022/03/13 00:26:07;;;;;;;23.45;11.45;;;;;;;;;;5061935;28;20028;-78
2022/03/13 00:28:33;;;;;;;19.67;11.98;;;;;;;;;;5043516;28;20064;-78
2022/03/13 00:30:59;;;;;;;19.40;11.82;;;;;;;;;;5041961;28;20489;-77
2022/03/13 00:33:25;;;;;;;18.52;12.23;;;;;;;;;;5042969;28;20037;-77
2022/03/13 00:35:51;;;;;;;19.83;12.55;;;;;;;;;;5044892;28;20505;-77
2022/03/13 00:38:19;;;;;;;23.67;12.75;;;;;;;;;;5041154;28;20367;-77
2022/03/13 00:40:51;;;;;;;21.48;12.23;;;;;;;;;;5031912;28;20468;-78
2022/03/13 00:43:18;;;;;;;20.00;12.32;;;;;;;;;;5035502;28;20021;-79
2022/03/13 00:45:44;;;;;;;17.58;11.95;;;;;;;;;;5040782;28;20090;-81
2022/03/13 00:48:10;;;;;;;17.63;11.80;;;;;;;;;;5042570;28;20044;-79
2022/03/13 00:50:37;;;;;;;19.20;11.55;;;;;;;;;;5040980;28;20029;-79
2022/03/13 00:53:03;;;;;;;16.00;11.07;;;;;;;;;;5056998;28;20089;-78
2022/03/13 00:55:29;;;;;;;20.48;11.75;;;;;;;;;;5056973;28;20120;-79
2022/03/13 00:57:55;;;;;;;17.77;12.07;;;;;;;;;;5051435;28;20201;-78
2022/03/13 01:00:22;;;;;;;18.58;12.00;;;;;;;;;;5056027;28;20050;-79
2022/03/13 01:02:48;;;;;;;21.95;12.13;;;;;;;;;;5052206;28;20033;-78
2022/03/13 01:05:21;;;;;;;20.15;12.90;;;;;;;;;;5058567;28;20028;-78
2022/03/13 01:07:47;;;;;;;19.90;11.70;;;;;;;;;;5049230;28;20147;-78
2022/03/13 01:10:13;;;;;;;16.17;11.43;;;;;;;;;;5064561;28;20035;-77
2022/03/13 01:12:39;;;;;;;20.20;11.32;;;;;;;;;;5047059;28;20045;-79
2022/03/13 01:15:06;;;;;;;18.60;11.70;;;;;;;;;;5054591;28;20482;-77
2022/03/13 01:17:32;;;;;;;18.58;11.70;;;;;;;;;;5046700;28;20033;-77
2022/03/13 01:19:58;;;;;;;21.65;11.27;;;;;;;;;;5047958;28;20043;-77
2022/03/13 01:22:24;;;;;;;18.17;11.65;;;;;;;;;;5048458;28;20112;-77
2022/03/13 01:24:51;;;;;;;23.55;11.98;;;;;;;;;;5049421;28;20434;-77
2022/03/13 01:27:17;;;;;;;19.42;12.23;;;;;;;;;;5051147;28;20427;-78
2022/03/13 01:29:44;;;;;;;20.38;11.63;;;;;;;;;;5053420;28;20048;-78
2022/03/13 01:32:12;;;;;;;15.90;11.32;;;;;;;;;;5047179;28;20124;-79
2022/03/13 01:34:43;;;;;;;19.15;11.00;;;;;;;;;;5055746;28;20036;-79
2022/03/13 01:37:13;;;;;;;19.42;11.60;;;;;;;;;;5057180;28;20078;-78
2022/03/13 01:39:40;;;;;;;19.42;11.88;;;;;;;;;;5060615;28;20046;-77
2022/03/13 01:42:06;;;;;;;19.77;11.63;;;;;;;;;;5064240;28;20167;-79
2022/03/13 01:44:32;;;;;;;16.40;11.20;;;;;;;;;;5042849;28;20052;-79
2022/03/13 01:47:00;;;;;;;19.17;10.95;;;;;;;;;;5056244;28;20052;-77
2022/03/13 01:49:26;;;;;;;17.73;11.40;;;;;;;;;;5063591;28;20370;-78
2022/03/13 01:51:52;;;;;;;18.30;10.75;;;;;;;;;;5055506;28;20032;-78
2022/03/13 01:54:18;;;;;;;16.77;10.65;;;;;;;;;;5056042;28;20047;-78
2022/03/13 01:56:44;;;;;;;14.27;9.75;;;;;;;;;;5055074;28;20034;-78
2022/03/13 01:59:11;;;;;;;15.45;9.38;;;;;;;;;;5058899;28;20021;-80
2022/03/13 02:01:37;;;;;;;18.13;10.40;;;;;;;;;;5058671;28;20036;-80
2022/03/13 02:04:03;;;;;;;14.95;10.10;;;;;;;;;;5056268;28;20470;-79
2022/03/13 02:06:29;;;;;;;14.90;9.88;;;;;;;;;;5050848;28;20039;-79
2022/03/13 02:08:56;;;;;;;14.48;9.27;;;;;;;;;;5059032;28;20033;-78
2022/03/13 02:11:40;;;;;;;12.40;8.60;;;;;;;;;;5060213;28;20487;-79
2022/03/13 02:14:08;;;;;;;14.23;8.88;;;;;;;;;;5052492;28;20087;-79
2022/03/13 02:16:34;;;;;;;13.85;8.73;;;;;;;;;;5060603;28;20020;-79
2022/03/13 02:19:01;;;;;;;12.02;8.25;;;;;;;;;;5040521;28;20167;-78
2022/03/13 02:21:28;;;;;;;12.82;8.40;;;;;;;;;;5052980;28;20131;-78
2022/03/13 02:23:59;;;;;;;13.95;8.73;;;;;;;;;;5054149;28;20028;-78
2022/03/13 02:26:26;;;;;;;14.43;8.48;;;;;;;;;;5063415;28;20111;-78
2022/03/13 02:28:53;;;;;;;17.95;8.23;;;;;;;;;;5059626;28;20067;-79
2022/03/13 02:31:40;;;;;;;13.85;8.93;;;;;;;;;;5071005;28;20442;-78
2022/03/13 02:34:11;;;;;;;15.40;8.65;;;;;;;;;;5059242;28;20033;-78
2022/03/13 02:36:37;;;;;;;13.45;8.18;;;;;;;;;;5065642;28;20097;-78
2022/03/13 02:39:04;;;;;;;12.95;8.63;;;;;;;;;;5050961;28;20510;-76
2022/03/13 02:41:30;;;;;;;13.00;8.52;;;;;;;;;;5058124;28;20059;-78
2022/03/13 02:43:56;;;;;;;13.20;8.68;;;;;;;;;;5037701;28;20505;-78
2022/03/13 02:46:42;;;;;;;14.10;8.05;;;;;;;;;;5063302;28;20166;-77
2022/03/13 02:49:08;;;;;;;13.93;8.52;;;;;;;;;;5051317;28;20492;-77
2022/03/13 02:51:34;;;;;;;14.63;8.75;;;;;;;;;;5063584;28;20090;-78
2022/03/13 02:54:00;;;;;;;12.50;8.32;;;;;;;;;;5047262;28;20049;-78
2022/03/13 02:56:26;;;;;;;13.75;8.73;;;;;;;;;;5053624;28;20037;-78
2022/03/13 02:58:52;;;;;;;12.55;8.75;;;;;;;;;;5049390;28;20029;-79
2022/03/13 03:01:19;;;;;;;15.10;9.68;;;;;;;;;;5056867;28;20029;-79
2022/03/13 03:03:45;;;;;;;18.55;10.30;;;;;;;;;;5035538;28;20553;-78
2022/03/13 03:06:12;;;;;;;14.40;9.32;;;;;;;;;;5067622;28;20029;-77
2022/03/13 03:08:39;;;;;;;14.32;9.40;;;;;;;;;;5055588;28;20025;-77
2022/03/13 03:11:05;;;;;;;17.85;9.50;;;;;;;;;;5049750;28;20028;-78
2022/03/13 03:13:31;;;;;;;14.95;9.15;;;;;;;;;;5055226;28;20028;-76
2022/03/13 03:15:57;;;;;;;18.10;9.38;;;;;;;;;;5066374;28;20062;-78
2022/03/13 03:18:23;;;;;;;13.77;9.80;;;;;;;;;;5051658;28;20016;-79
2022/03/13 03:20:49;;;;;;;14.90;8.68;;;;;;;;;;5044029;28;20128;-79
2022/03/13 03:23:16;;;;;;;15.75;9.75;;;;;;;;;;5058804;28;20175;-79
2022/03/13 03:25:42;;;;;;;14.52;10.07;;;;;;;;;;5054067;28;20025;-78
2022/03/13 03:28:08;;;;;;;16.08;10.38;;;;;;;;;;5052706;28;20483;-78
2022/03/13 03:30:34;;;;;;;17.35;10.95;;;;;;;;;;5053859;28;20033;-77
2022/03/13 03:33:04;;;;;;;15.68;10.23;;;;;;;;;;5050128;28;20041;-78
2022/03/13 03:35:30;;;;;;;14.63;9.87;;;;;;;;;;5052950;28;20557;-77
2022/03/13 03:37:56;;;;;;;14.30;9.85;;;;;;;;;;5060377;28;20810;-79
2022/03/13 03:40:23;;;;;;;15.80;10.57;;;;;;;;;;5065528;28;20052;-77
2022/03/13 03:42:49;;;;;;;14.40;9.82;;;;;;;;;;5058954;28;20125;-79
2022/03/13 03:45:18;;;;;;;14.32;10.05;;;;;;;;;;5051097;28;20029;-78
2022/03/13 03:47:45;;;;;;;15.43;10.02;;;;;;;;;;5047827;28;20128;-78
2022/03/13 03:50:11;;;;;;;16.83;10.18;;;;;;;;;;5051328;28;20021;-77
2022/03/13 03:52:37;;;;;;;16.15;9.98;;;;;;;;;;5052289;28;20033;-79
2022/03/13 03:55:04;;;;;;;15.88;10.23;;;;;;;;;;5062397;28;20392;-76
2022/03/13 03:57:30;;;;;;;15.18;10.35;;;;;;;;;;5050474;28;20471;-77
2022/03/13 03:59:56;;;;;;;14.73;9.50;;;;;;;;;;5058798;28;20028;-77
2022/03/13 04:02:22;;;;;;;16.00;10.65;;;;;;;;;;5052323;28;20033;-76
2022/03/13 04:04:49;;;;;;;15.52;9.95;;;;;;;;;;5056581;28;20472;-78
2022/03/13 04:07:15;;;;;;;15.23;9.88;;;;;;;;;;5044183;28;20036;-78
2022/03/13 04:09:41;;;;;;;16.70;11.15;;;;;;;;;;5054605;28;20029;-80
2022/03/13 04:12:08;;;;;;;15.35;9.82;;;;;;;;;;5056812;28;20025;-78
2022/03/13 04:14:37;;;;;;;15.43;10.48;;;;;;;;;;5038135;28;20029;-77
2022/03/13 04:17:05;;;;;;;17.98;10.90;;;;;;;;;;5054666;28;20096;-78
2022/03/13 04:19:31;;;;;;;19.25;10.63;;;;;;;;;;5053093;28;20491;-77
2022/03/13 04:21:57;;;;;;;18.25;10.13;;;;;;;;;;5051708;28;21620;-77
2022/03/13 04:24:24;;;;;;;15.35;10.30;;;;;;;;;;5051166;28;20021;-77
2022/03/13 04:26:50;;;;;;;15.48;10.95;;;;;;;;;;5059127;28;20021;-78
2022/03/13 04:29:16;;;;;;;16.80;11.20;;;;;;;;;;5051150;28;20029;-78
2022/03/13 04:31:43;;;;;;;16.10;10.48;;;;;;;;;;5055971;28;20478;-77
2022/03/13 04:34:09;;;;;;;22.60;10.98;;;;;;;;;;5051581;28;20020;-80
2022/03/13 04:36:37;;;;;;;18.73;11.00;;;;;;;;;;5052839;28;20021;-77
2022/03/13 04:39:07;;;;;;;16.10;10.57;;;;;;;;;;5049851;28;20040;-78
2022/03/13 04:41:33;;;;;;;17.85;11.65;;;;;;;;;;5055984;28;20041;-77
2022/03/13 04:44:00;;;;;;;21.27;12.45;;;;;;;;;;5045735;28;20119;-77
2022/03/13 04:46:27;;;;;;;19.13;11.90;;;;;;;;;;5056429;28;20047;-78
2022/03/13 04:48:53;;;;;;;20.33;12.20;;;;;;;;;;5047770;28;20119;-78
2022/03/13 04:51:19;;;;;;;19.88;11.80;;;;;;;;;;5057028;28;20098;-79
2022/03/13 04:53:45;;;;;;;23.38;12.68;;;;;;;;;;5048168;28;20523;-79
2022/03/13 04:56:11;;;;;;;17.75;11.95;;;;;;;;;;5062144;28;20068;-78
2022/03/13 04:58:38;;;;;;;19.40;11.98;;;;;;;;;;5050181;28;20313;-77
2022/03/13 05:01:04;;;;;;;19.25;12.65;;;;;;;;;;5052431;28;20028;-79
2022/03/13 05:03:33;;;;;;;21.80;13.00;;;;;;;;;;5050627;28;20508;-77
2022/03/13 05:05:59;;;;;;;21.80;13.40;;;;;;;;;;5051480;28;20103;-79
2022/03/13 05:08:26;;;;;;;21.85;13.82;;;;;;;;;;5050298;28;20073;-79
2022/03/13 05:10:52;;;;;;;22.52;13.95;;;;;;;;;;5062149;28;20052;-79
2022/03/13 05:13:19;;;;;;;21.95;14.25;;;;;;;;;;5036848;28;20071;-76
2022/03/13 05:15:46;;;;;;;24.10;14.68;;;;;;;;;;5041979;28;20025;-78
2022/03/13 05:18:12;;;;;;;27.13;14.75;;;;;;;;;;5032607;28;20025;-79
2022/03/13 05:20:39;;;;;;;23.92;15.50;;;;;;;;;;5045854;28;20390;-78
2022/03/13 05:23:07;;;;;;;22.20;14.98;;;;;;;;;;5039158;28;20025;-78
2022/03/13 05:25:35;;;;;;;26.95;16.08;;;;;;;;;;5027768;28;20041;-78
2022/03/13 05:28:11;;;;;;;27.63;17.85;;;;;;;;;;5038977;28;20500;-78
2022/03/13 05:30:38;;;;;;;29.75;16.52;;;;;;;;;;5041588;28;20072;-78
2022/03/13 05:33:04;;;;;;;26.85;17.13;;;;;;;;;;5037891;28;20025;-77
2022/03/13 05:35:31;;;;;;;33.33;18.10;;;;;;;;;;5037309;28;20059;-77
2022/03/13 05:37:57;;;;;;;27.80;17.58;;;;;;;;;;5058268;28;20036;-78
2022/03/13 05:40:23;;;;;;;28.75;17.88;;;;;;;;;;5064446;28;20032;-77
2022/03/13 05:42:51;;;;;;;31.58;17.80;;;;;;;;;;5052504;28;20067;-79
2022/03/13 05:45:19;;;;;;;28.33;17.02;;;;;;;;;;5060170;28;20112;-79
2022/03/13 05:47:49;;;;;;;32.30;17.48;;;;;;;;;;5054255;28;20049;-78
2022/03/13 05:50:16;;;;;;;28.08;17.50;;;;;;;;;;5052204;28;20027;-77
2022/03/13 05:52:44;;;;;;;34.55;17.88;;;;;;;;;;5056166;28;20433;-76
2022/03/13 05:55:10;;;;;;;27.88;17.75;;;;;;;;;;5060210;28;20466;-77
2022/03/13 05:57:37;;;;;;;28.58;16.90;;;;;;;;;;5055180;28;20462;-77
2022/03/13 06:00:07;;;;;;;30.08;17.48;;;;;;;;;;5061043;28;20024;-77
2022/03/13 06:02:36;;;;;;;32.25;17.98;;;;;;;;;;5056606;28;20029;-77
2022/03/13 06:05:03;;;;;;;32.10;18.80;;;;;;;;;;5060692;28;20059;-79
2022/03/13 06:07:29;;;;;;;32.00;18.40;;;;;;;;;;5053366;28;20348;-77
2022/03/13 06:09:55;;;;;;;31.40;18.80;;;;;;;;;;5056364;28;20025;-77
2022/03/13 06:12:21;;;;;;;27.98;18.15;;;;;;;;;;5058420;28;20063;-77
2022/03/13 06:14:47;;;;;;;28.60;18.67;;;;;;;;;;5053318;28;20032;-78
2022/03/13 06:17:13;;;;;;;31.08;19.42;;;;;;;;;;5049144;28;20030;-77
2022/03/13 06:19:42;;;;;;;29.35;17.80;;;;;;;;;;5054537;28;20028;-79
2022/03/13 06:22:09;;;;;;;30.90;18.95;;;;;;;;;;5063613;28;20030;-77
2022/03/13 06:24:35;;;;;;;30.70;19.27;;;;;;;;;;5060889;28;20043;-78
2022/03/13 06:27:01;;;;;;;29.05;19.70;;;;;;;;;;5063355;28;20021;-77
2022/03/13 06:29:27;;;;;;;33.72;19.80;;;;;;;;;;5053261;28;20471;-78
2022/03/13 06:31:53;;;;;;;32.30;19.73;;;;;;;;;;5067358;28;20028;-78
2022/03/13 06:34:19;;;;;;;29.73;19.05;;;;;;;;;;5050057;28;20036;-77
2022/03/13 06:36:46;;;;;;;30.45;19.45;;;;;;;;;;5056299;28;20060;-79
2022/03/13 06:39:12;;;;;;;32.30;20.38;;;;;;;;;;5054807;28;20024;-78
2022/03/13 06:41:38;;;;;;;34.15;20.70;;;;;;;;;;5061411;28;20051;-79
2022/03/13 06:44:05;;;;;;;32.40;19.40;;;;;;;;;;5055228;28;20078;-79
2022/03/13 06:46:32;;;;;;;29.50;19.35;;;;;;;;;;5066411;28;20523;-77
2022/03/13 06:48:59;;;;;;;33.80;20.27;;;;;;;;;;5062726;28;20158;-77
2022/03/13 06:51:26;;;;;;;33.28;21.40;;;;;;;;;;5063804;28;20109;-77
2022/03/13 06:53:52;;;;;;;32.42;19.80;;;;;;;;;;5048651;28;20505;-80
2022/03/13 06:56:18;;;;;;;33.28;20.70;;;;;;;;;;5063862;28;20075;-77
2022/03/13 06:58:44;;;;;;;30.60;19.20;;;;;;;;;;5059105;28;20024;-78
2022/03/13 07:01:10;;;;;;;33.28;19.98;;;;;;;;;;5059964;28;20033;-79
2022/03/13 07:03:36;;;;;;;35.38;19.85;;;;;;;;;;5049471;28;20047;-77
2022/03/13 07:06:04;;;;;;;29.90;19.52;;;;;;;;;;5055120;28;20032;-78
2022/03/13 07:08:32;;;;;;;32.20;20.55;;;;;;;;;;5062817;28;20546;-79
2022/03/13 07:10:59;;;;;;;34.40;19.50;;;;;;;;;;5064115;28;20032;-79
2022/03/13 07:13:30;;;;;;;31.98;19.77;;;;;;;;;;5058173;28;20021;-76
2022/03/13 07:15:56;;;;;;;38.20;19.52;;;;;;;;;;5057992;28;20059;-77
2022/03/13 07:18:23;;;;;;;33.78;19.63;;;;;;;;;;5063230;28;20042;-77
2022/03/13 07:20:49;;;;;;;31.35;18.85;;;;;;;;;;5050174;28;20086;-78
2022/03/13 07:23:15;;;;;;;33.97;18.85;;;;;;;;;;5049023;28;20557;-78
2022/03/13 07:25:41;;;;;;;28.20;17.80;;;;;;;;;;5052409;28;20120;-78
2022/03/13 07:28:07;;;;;;;30.02;18.30;;;;;;;;;;5051457;28;20032;-79
2022/03/13 07:30:33;;;;;;;34.78;19.05;;;;;;;;;;5048856;28;20040;-78
2022/03/13 07:32:59;;;;;;;32.83;19.08;;;;;;;;;;5052860;28;20048;-78
2022/03/13 07:35:25;;;;;;;27.80;18.52;;;;;;;;;;5054986;28;20037;-77
2022/03/13 07:37:52;;;;;;;32.08;18.20;;;;;;;;;;5055032;28;20032;-78
2022/03/13 07:40:17;;;;;;;34.22;19.52;;;;;;;;;;5060822;28;20116;-75
2022/03/13 07:42:43;;;;;;;31.63;19.00;;;;;;;;;;5057327;28;20123;-77
2022/03/13 07:45:10;;;;;;;30.38;18.80;;;;;;;;;;5064798;28;20440;-77
2022/03/13 07:47:36;;;;;;;29.48;19.45;;;;;;;;;;5051446;28;20825;-74
2022/03/13 07:50:03;;;;;;;35.25;20.45;;;;;;;;;;5060062;28;20293;-77
2022/03/13 07:52:29;;;;;;;30.73;19.67;;;;;;;;;;5054186;28;20428;-78
2022/03/13 07:54:54;;;;;;;33.08;19.42;;;;;;;;;;5052365;28;20537;-78
2022/03/13 07:57:21;;;;;;;29.33;18.23;;;;;;;;;;5045784;28;20037;-79
2022/03/13 07:59:47;;;;;;;34.05;18.75;;;;;;;;;;5049489;28;20033;-78
2022/03/13 08:02:14;;;;;;;28.70;18.55;;;;;;;;;;5048915;28;20061;-79
2022/03/13 08:04:40;;;;;;;32.83;19.08;;;;;;;;;;5051717;28;20083;-79
2022/03/13 08:07:06;;;;;;;28.83;18.52;;;;;;;;;;5052926;28;20016;-77
2022/03/13 08:09:34;;;;;;;29.67;18.33;;;;;;;;;;5056456;28;20075;-79
2022/03/13 08:12:00;;;;;;;29.00;18.80;;;;;;;;;;5048521;28;20121;-78
2022/03/13 08:14:26;;;;;;;29.63;18.67;;;;;;;;;;5060125;28;20029;-77
2022/03/13 08:16:53;;;;;;;31.23;18.08;;;;;;;;;;5058205;28;20029;-78
2022/03/13 08:19:19;;;;;;;27.80;18.17;;;;;;;;;;5051123;28;20536;-76
2022/03/13 08:21:45;;;;;;;29.95;19.02;;;;;;;;;;5061771;28;20151;-76
2022/03/13 08:24:13;;;;;;;30.10;18.63;;;;;;;;;;5046734;28;20104;-76
2022/03/13 08:26:39;;;;;;;32.03;18.20;;;;;;;;;;5041948;28;20090;-77
2022/03/13 08:29:06;;;;;;;34.83;18.00;;;;;;;;;;5051504;28;20025;-76
2022/03/13 08:31:33;;;;;;;34.75;17.60;;;;;;;;;;5053647;28;20029;-79
2022/03/13 08:33:59;;;;;;;27.45;18.80;;;;;;;;;;5054149;28;20180;-77
2022/03/13 08:36:25;;;;;;;26.33;17.88;;;;;;;;;;5057333;28;20025;-76
2022/03/13 08:38:52;;;;;;;34.85;18.88;;;;;;;;;;5049963;28;20033;-77
2022/03/13 08:41:18;;;;;;;28.75;18.75;;;;;;;;;;5058778;28;20016;-83
2022/03/13 08:43:45;;;;;;;34.50;19.00;;;;;;;;;;5054171;28;20085;-77
2022/03/13 08:46:14;;;;;;;30.88;18.67;;;;;;;;;;5045194;28;20029;-79
2022/03/13 08:48:40;;;;;;;27.25;17.58;;;;;;;;;;5047590;28;20072;-77
2022/03/13 08:51:08;;;;;;;26.67;18.17;;;;;;;;;;5044999;28;20045;-77
2022/03/13 08:53:34;;;;;;;26.77;17.98;;;;;;;;;;5051842;28;20501;-77
2022/03/13 08:56:00;;;;;;;31.60;18.73;;;;;;;;;;5054445;28;20751;-77
2022/03/13 08:58:26;;;;;;;30.10;18.23;;;;;;;;;;5048756;28;20021;-79
2022/03/13 09:00:52;;;;;;;28.55;19.08;;;;;;;;;;5051875;28;20037;-78
2022/03/13 09:03:18;;;;;;;26.17;18.38;;;;;;;;;;5053770;28;20020;-77
2022/03/13 09:05:47;;;;;;;29.40;18.38;;;;;;;;;;5051718;28;20120;-78
2022/03/13 09:08:13;;;;;;;26.67;17.98;;;;;;;;;;5046406;28;20032;-79
2022/03/13 09:10:39;;;;;;;31.73;18.63;;;;;;;;;;5049744;28;20056;-79
2022/03/13 09:13:05;;;;;;;26.42;17.65;;;;;;;;;;5055643;28;20035;-78
2022/03/13 09:15:31;;;;;;;25.45;17.55;;;;;;;;;;5049195;28;20040;-78
2022/03/13 09:18:02;;;;;;;26.27;17.60;;;;;;;;;;5046392;28;20025;-78
2022/03/13 09:20:28;;;;;;;26.95;17.85;;;;;;;;;;5057313;28;20496;-76
2022/03/13 09:22:54;;;;;;;27.10;18.25;;;;;;;;;;5053684;28;20116;-79
2022/03/13 09:25:20;;;;;;;24.98;17.58;;;;;;;;;;5055999;28;20081;-77
2022/03/13 09:27:47;;;;;;;25.25;17.00;;;;;;;;;;5052961;28;20123;-78
2022/03/13 09:30:13;;;;;;;27.50;17.35;;;;;;;;;;5049704;28;20041;-77
2022/03/13 09:32:40;;;;;;;25.65;16.75;;;;;;;;;;5052543;28;20041;-77
2022/03/13 09:35:06;;;;;;;24.08;16.42;;;;;;;;;;5059154;28;20028;-76
2022/03/13 09:37:32;;;;;;;25.95;16.63;;;;;;;;;;5049155;28;20049;-78
2022/03/13 09:39:58;;;;;;;25.70;17.30;;;;;;;;;;5052393;28;20037;-78
2022/03/13 09:42:24;;;;;;;25.50;17.50;;;;;;;;;;5049250;28;20053;-78
2022/03/13 09:44:50;;;;;;;24.98;17.23;;;;;;;;;;5058324;28;20060;-77
2022/03/13 09:47:16;;;;;;;26.50;16.88;;;;;;;;;;5051672;28;20069;-77
2022/03/13 09:49:43;;;;;;;26.02;17.42;;;;;;;;;;5054219;28;20024;-77
2022/03/13 09:52:09;;;;;;;26.05;16.77;;;;;;;;;;5059959;28;20420;-76
2022/03/13 09:54:36;;;;;;;25.65;16.73;;;;;;;;;;5048807;28;20052;-76
2022/03/13 09:57:05;;;;;;;26.30;16.52;;;;;;;;;;5036252;28;20021;-75
2022/03/13 09:59:32;;;;;;;25.75;16.95;;;;;;;;;;5041580;28;20044;-77
2022/03/13 10:01:58;;;;;;;23.70;16.33;;;;;;;;;;5039542;28;20052;-77
2022/03/13 10:04:24;;;;;;;25.67;16.65;;;;;;;;;;5033579;28;20037;-77
2022/03/13 10:07:10;;;;;;;24.05;16.85;;;;;;;;;;5034458;28;20025;-76
2022/03/13 10:09:37;;;;;;;22.90;16.05;;;;;;;;;;5031394;28;20459;-77
2022/03/13 10:12:04;;;;;;;28.60;16.40;;;;;;;;;;5037120;28;20025;-76
2022/03/13 10:14:30;;;;;;;22.40;16.23;;;;;;;;;;5027262;28;20037;-77
2022/03/13 10:16:56;;;;;;;24.90;16.40;;;;;;;;;;5045359;28;20029;-76
2022/03/13 10:19:24;;;;;;;24.92;16.42;;;;;;;;;;5057998;28;20039;-77
2022/03/13 10:22:01;;;;;;;25.42;17.10;;;;;;;;;;5065637;28;20037;-77
2022/03/13 10:24:27;;;;;;;23.35;16.92;;;;;;;;;;5053852;28;20025;-77
2022/03/13 10:27:13;;;;;;;26.98;16.83;;;;;;;;;;5061636;28;20036;-74
2022/03/13 10:29:40;;;;;;;22.55;16.00;;;;;;;;;;5063652;28;20051;-76
2022/03/13 10:32:06;;;;;;;27.52;17.35;;;;;;;;;;5067027;28;20489;-77
2022/03/13 10:34:32;;;;;;;24.58;17.23;;;;;;;;;;5051415;28;20036;-77
2022/03/13 10:37:00;;;;;;;24.92;16.38;;;;;;;;;;5051004;28;20490;-75
2022/03/13 10:39:26;;;;;;;24.15;15.65;;;;;;;;;;5054928;28;20028;-76
2022/03/13 10:41:58;;;;;;;23.17;16.92;;;;;;;;;;5053024;28;20047;-76
2022/03/13 10:44:25;;;;;;;24.38;16.23;;;;;;;;;;5062943;28;20476;-76
2022/03/13 10:46:58;;;;;;;26.15;17.08;;;;;;;;;;5055641;28;20041;-75
2022/03/13 10:49:32;;;;;;;25.70;17.15;;;;;;;;;;5061009;28;20029;-77
2022/03/13 10:51:59;;;;;;;25.35;16.95;;;;;;;;;;5060142;28;20021;-78
2022/03/13 10:54:30;;;;;;;26.58;17.65;;;;;;;;;;5062046;28;20033;-77
2022/03/13 10:57:06;;;;;;;23.92;17.08;;;;;;;;;;5055140;28;20060;-76
2022/03/13 10:59:33;;;;;;;32.78;17.40;;;;;;;;;;5043840;28;20044;-77
2022/03/13 11:02:16;;;;;;;24.13;17.17;;;;;;;;;;5050429;28;20072;-77
2022/03/13 11:04:49;;;;;;;26.23;17.60;;;;;;;;;;5044478;28;20025;-77
2022/03/13 11:07:16;;;;;;;28.20;18.00;;;;;;;;;;5055678;28;20041;-77
2022/03/13 11:09:42;;;;;;;27.08;17.70;;;;;;;;;;5053758;28;20025;-75
2022/03/13 11:12:12;;;;;;;29.23;18.45;;;;;;;;;;5059152;28;20048;-77
2022/03/13 11:14:40;;;;;;;27.88;18.30;;;;;;;;;;5056669;28;20390;-78
2022/03/13 11:17:08;;;;;;;25.92;16.95;;;;;;;;;;5051321;28;20022;-77
2022/03/13 11:19:36;;;;;;;27.52;17.50;;;;;;;;;;5050180;28;20450;-76
2022/03/13 11:22:02;;;;;;;28.63;17.98;;;;;;;;;;5061430;28;20487;-78
2022/03/13 11:24:29;;;;;;;28.42;17.08;;;;;;;;;;5061396;28;20197;-77
2022/03/13 11:26:56;;;;;;;31.15;18.48;;;;;;;;;;5050435;28;20029;-77
2022/03/13 11:29:42;;;;;;;23.42;17.38;;;;;;;;;;5057159;28;20055;-78
2022/03/13 11:32:27;;;;;;;26.55;18.70;;;;;;;;;;5060882;28;20039;-78
2022/03/13 11:35:19;;;;;;;26.27;16.35;;;;;;;;;;5065008;28;20029;-78
2022/03/13 11:37:47;;;;;;;24.75;17.33;;;;;;;;;;5055535;28;20112;-77
2022/03/13 11:40:16;;;;;;;28.20;18.50;;;;;;;;;;5059093;28;20025;-78
2022/03/13 11:42:47;;;;;;;24.88;17.35;;;;;;;;;;5062999;28;20038;-78
2022/03/13 11:45:27;;;;;;;28.75;16.45;;;;;;;;;;5062448;28;20473;-77
2022/03/13 11:47:53;;;;;;;22.58;15.80;;;;;;;;;;5061015;28;20128;-79
2022/03/13 11:50:19;;;;;;;23.00;16.00;;;;;;;;;;5054665;28;20063;-78
2022/03/13 11:52:45;;;;;;;28.73;17.33;;;;;;;;;;5065034;28;20041;-78
2022/03/13 11:55:13;;;;;;;23.02;15.30;;;;;;;;;;5037760;28;20028;-77
2022/03/13 11:57:43;;;;;;;18.40;13.82;;;;;;;;;;5053071;28;20483;-76
2022/03/13 12:00:12;;;;;;;27.75;14.98;;;;;;;;;;5052544;28;20040;-77
2022/03/13 12:02:41;;;;;;;20.13;13.77;;;;;;;;;;5047987;28;20029;-77
2022/03/13 12:05:26;;;;;;;22.25;12.55;;;;;;;;;;5047427;28;20131;-80
2022/03/13 12:08:06;;;;;;;19.52;13.75;;;;;;;;;;5055168;28;20327;-75
2022/03/13 12:10:45;;;;;;;19.37;14.10;;;;;;;;;;5043611;28;20033;-77
2022/03/13 12:13:15;;;;;;;23.90;16.70;;;;;;;;;;5052078;28;20868;-78
2022/03/13 12:15:42;;;;;;;23.50;15.02;;;;;;;;;;5054575;28;20013;-76
2022/03/13 12:18:16;;;;;;;21.52;15.43;;;;;;;;;;5048358;28;20017;-77
2022/03/13 12:20:43;;;;;;;23.30;16.17;;;;;;;;;;5057204;28;20032;-76
2022/03/13 12:23:09;;;;;;;22.38;15.20;;;;;;;;;;5048199;28;20032;-75
2022/03/13 12:25:36;;;;;;;23.92;16.10;;;;;;;;;;5047135;28;20037;-75
2022/03/13 12:28:02;;;;;;;21.08;14.52;;;;;;;;;;5049964;28;20037;-76
2022/03/13 12:30:29;;;;;;;20.05;13.98;;;;;;;;;;5050259;28;20093;-75
2022/03/13 12:32:59;;;;;;;21.13;14.70;;;;;;;;;;5056420;28;20040;-75
2022/03/13 12:35:25;;;;;;;21.85;14.80;;;;;;;;;;5053088;28;20025;-78
2022/03/13 12:38:01;;;;;;;20.38;14.32;;;;;;;;;;5061152;28;20561;-75
2022/03/13 12:40:29;;;;;;;21.77;15.45;;;;;;;;;;5054077;28;20027;-77
2022/03/13 12:42:56;;;;;;;20.67;15.07;;;;;;;;;;5060128;28;20021;-76
2022/03/13 12:45:22;;;;;;;22.60;15.07;;;;;;;;;;5060632;28;20033;-75
2022/03/13 12:47:51;;;;;;;21.20;14.90;;;;;;;;;;5050864;28;20033;-76
2022/03/13 12:50:18;;;;;;;22.83;15.07;;;;;;;;;;5042884;28;20040;-77
2022/03/13 12:52:53;;;;;;;23.42;16.35;;;;;;;;;;5054275;28;20037;-76
2022/03/13 12:55:20;;;;;;;26.20;16.05;;;;;;;;;;5042920;28;20025;-76
2022/03/13 12:57:53;;;;;;;21.73;16.17;;;;;;;;;;5053573;28;20054;-77
2022/03/13 13:00:21;;;;;;;24.02;16.38;;;;;;;;;;5052836;28;20028;-77
2022/03/13 13:03:02;;;;;;;25.08;16.70;;;;;;;;;;5054896;28;20017;-77
2022/03/13 13:05:29;;;;;;;22.02;15.50;;;;;;;;;;5037840;28;20026;-78
2022/03/13 13:07:55;;;;;;;22.95;15.43;;;;;;;;;;5054879;28;20822;-77
2022/03/13 13:10:22;;;;;;;19.80;14.15;;;;;;;;;;5048720;28;20467;-78
2022/03/13 13:12:48;;;;;;;20.33;14.88;;;;;;;;;;5030089;28;20036;-78
2022/03/13 13:15:16;;;;;;;20.40;14.57;;;;;;;;;;5030072;28;20022;-76
2022/03/13 13:17:45;;;;;;;19.10;13.30;;;;;;;;;;5046266;28;20096;-75
2022/03/13 13:20:19;;;;;;;17.52;12.63;;;;;;;;;;5034762;28;20025;-76
2022/03/13 13:22:45;;;;;;;17.30;13.23;;;;;;;;;;5029961;28;20029;-76
2022/03/13 13:25:19;;;;;;;21.08;12.07;;;;;;;;;;5029903;28;20502;-77
2022/03/13 13:27:51;;;;;;;18.67;12.50;;;;;;;;;;5044257;28;20079;-76
2022/03/13 13:30:27;;;;;;;22.45;14.75;;;;;;;;;;5035466;28;20087;-76
2022/03/13 13:32:56;;;;;;;23.70;12.38;;;;;;;;;;5041996;28;20176;-76
2022/03/13 13:35:23;;;;;;;15.68;11.40;;;;;;;;;;5029149;28;20228;-76
2022/03/13 13:37:56;;;;;;;14.70;10.27;;;;;;;;;;5037111;28;20471;-77
2022/03/13 13:40:27;;;;;;;15.18;11.23;;;;;;;;;;5036603;28;20886;-76
2022/03/13 13:43:00;;;;;;;15.90;11.57;;;;;;;;;;5034711;28;20040;-78
2022/03/13 13:45:30;;;;;;;17.27;11.55;;;;;;;;;;5052690;28;20029;-76
2022/03/13 13:48:14;;;;;;;15.07;10.80;;;;;;;;;;5029234;28;20045;-77
2022/03/13 13:50:43;;;;;;;17.90;10.88;;;;;;;;;;5046688;28;20028;-76
2022/03/13 13:53:10;;;;;;;16.48;11.52;;;;;;;;;;5047038;28;20053;-75
2022/03/13 13:55:37;;;;;;;15.82;11.43;;;;;;;;;;5054910;28;20028;-76
2022/03/13 13:58:23;;;;;;;16.13;12.27;;;;;;;;;;5064138;28;20021;-79
2022/03/13 14:00:49;;;;;;;17.35;11.32;;;;;;;;;;5052597;28;20020;-77
2022/03/13 14:03:15;;;;;;;16.95;11.10;;;;;;;;;;5047366;28;20057;-78
2022/03/13 14:05:41;;;;;;;16.70;11.68;;;;;;;;;;5033775;28;20471;-78
2022/03/13 14:08:08;;;;;;;13.95;11.10;;;;;;;;;;5058157;28;20031;-77
2022/03/13 14:10:35;;;;;;;16.00;10.75;;;;;;;;;;5057572;28;20059;-78
2022/03/13 14:13:04;;;;;;;14.48;10.18;;;;;;;;;;5052982;28;20036;-77
2022/03/13 14:15:31;;;;;;;14.43;11.13;;;;;;;;;;5043847;28;20478;-76
2022/03/13 14:17:57;;;;;;;15.68;10.75;;;;;;;;;;5071348;28;20105;-77
2022/03/13 14:20:24;;;;;;;15.82;10.57;;;;;;;;;;5059518;28;20443;-77
2022/03/13 14:22:50;;;;;;;17.08;11.13;;;;;;;;;;5044233;28;20032;-78